Weather History for Cheraw, SC

Change the Weather History Date:

Thursday, March 14, 2013

  Actual Average (KFLO) Record (KFLO)
Temperature  
Mean Temperature 40 °F 55 °F  
Max Temperature 53 °F 67 °F 85 °F (1985)
Min Temperature 28 °F 43 °F 25 °F (1960)
Degree Days  
Heating Degree Days 24 10  
Month to date heating degree days 168  
Since 1 July heating degree days 2234  
Cooling Degree Days 0 1  
Month to date cooling degree days 1  
Year to date cooling degree days 7  
Moisture  
Dew Point 17 °F    
Average Humidity 42    
Maximum Humidity 81    
Minimum Humidity 21    
Precipitation  
Precipitation 0.00 in 0.11 in 1.99 in (1997)
Month to date precipitation 1.56  
Year to date precipitation 7.71  
Sea Level Pressure  
Sea Level Pressure 30.21 in    
Wind  
Wind Speed - (North)    
Max Wind Speed -    
Max Gust Speed -    
Visibility 10 miles    
Events      
T = Trace of Precipitation, MM = Missing Value Source: NWS Daily Summary

Daily Weather History Graph

Daily Weather History Graph

Search for Another Location

Airport:

Trip Planner

Search our weather history database for the weather conditions in past years. The results will help you decide how hot, cold, wet, or windy it might be!

Date:

Astronomy

Mar. 14, 2013 Rise Set
Actual Time 7:31 AM EDT 7:26 PM EDT
Civil Twilight 7:06 AM EDT 7:52 PM EDT
Nautical Twilight 6:37 AM EDT 8:21 PM EDT
Astronomical Twilight 6:07 AM EDT 8:50 PM EDT
Moon 8:52 AM EDT (3/14) 10:31 PM EDT (3/14)
Length of Visible Light 12h 45m
Length of Day
11h 55m
Waxing Crescent, 9% of the Moon is Illuminated
Mar 14
Waxing Crescent
Mar 19
First Quarter
Mar 27
Full
Apr 3
Last Quarter
Apr 10
New

Hourly Weather History & Observations

Time (EDT) Temp. Dew Point Humidity Pressure Visibility Wind Dir Wind Speed Gust Speed Precip Events Conditions
12:15 AM 39.2 °F 15.8 °F 39% 30.16 in 10.0 mi North - - N/A   Clear
12:35 AM 39.2 °F 15.8 °F 39% 30.16 in 10.0 mi North - - N/A   Clear
12:55 AM 37.4 °F 15.8 °F 41% 30.16 in 10.0 mi North - - N/A   Clear
1:15 AM 37.4 °F 15.8 °F 41% 30.16 in 10.0 mi North - - N/A   Clear
1:35 AM 37.4 °F 15.8 °F 41% 30.16 in 10.0 mi North - - N/A   Clear
1:55 AM 37.4 °F 15.8 °F 41% 30.17 in 10.0 mi North - - N/A   Clear
2:15 AM 35.6 °F 15.8 °F 44% 30.17 in 10.0 mi North - - N/A   Clear
2:35 AM 35.6 °F 17.6 °F 48% 30.18 in 10.0 mi North - - N/A   Clear
2:55 AM 33.8 °F 17.6 °F 52% 30.18 in 10.0 mi North - - N/A   Clear
3:15 AM 33.8 °F 17.6 °F 52% 30.19 in 10.0 mi North - - N/A   Clear
3:35 AM 33.8 °F 15.8 °F 48% 30.19 in 10.0 mi North - - N/A   Clear
3:55 AM 32.0 °F 17.6 °F 55% 30.19 in 10.0 mi North - - N/A   Clear
4:15 AM 32.0 °F 17.6 °F 55% 30.20 in 10.0 mi North - - N/A   Clear
4:35 AM 32.0 °F 15.8 °F 51% 30.20 in 10.0 mi North - - N/A   Clear
5:15 AM 32.0 °F 15.8 °F 51% 30.21 in 10.0 mi North - - N/A   Clear
5:35 AM 32.0 °F 15.8 °F 51% 30.22 in 10.0 mi North - - N/A   Clear
5:55 AM 30.2 °F 15.8 °F 55% 30.22 in 10.0 mi North - - N/A   Clear
6:15 AM 30.2 °F 15.8 °F 55% 30.23 in 10.0 mi North - - N/A   Clear
6:35 AM 30.2 °F 15.8 °F 55% 30.23 in 10.0 mi North - - N/A   Clear
6:55 AM 28.4 °F 17.6 °F 64% 30.24 in 10.0 mi North - - N/A   Clear
7:15 AM 28.4 °F 15.8 °F 59% 30.24 in 10.0 mi North - - N/A   Clear
7:35 AM 28.4 °F 15.8 °F 59% 30.25 in 10.0 mi North - - N/A   Clear
7:55 AM 28.4 °F 17.6 °F 64% 30.26 in 10.0 mi North - - N/A   Clear
8:15 AM 30.2 °F 17.6 °F 60% 30.27 in 10.0 mi North - - N/A   Clear
8:35 AM 32.0 °F 15.8 °F 51% 30.27 in 10.0 mi North - - N/A   Clear
8:55 AM 33.8 °F 15.8 °F 48% 30.27 in 10.0 mi North - - N/A   Clear
9:15 AM 35.6 °F 14.0 °F 41% 30.29 in 10.0 mi North - - N/A   Clear
9:55 AM 37.4 °F 14.0 °F 38% 30.29 in 10.0 mi North - - N/A   Clear
10:15 AM 37.4 °F 14.0 °F 38% 30.29 in 10.0 mi North - - N/A   Clear
10:35 AM 39.2 °F 14.0 °F 36% 30.30 in 10.0 mi North - - N/A   Clear
10:55 AM 41.0 °F 14.0 °F 33% 30.29 in 10.0 mi North - - N/A   Clear
11:15 AM 41.0 °F 12.2 °F 31% 30.29 in 10.0 mi North - - N/A   Clear
11:35 AM 41.0 °F 14.0 °F 33% 30.29 in 10.0 mi North - - N/A   Clear
11:55 AM 42.8 °F 14.0 °F 31% 30.28 in 10.0 mi North - - N/A   Clear
12:15 PM 44.6 °F 14.0 °F 29% 30.27 in 10.0 mi North - - N/A   Clear
12:35 PM 44.6 °F 14.0 °F 29% 30.26 in 10.0 mi North - - N/A   Clear
12:55 PM 46.4 °F 14.0 °F 27% 30.26 in 10.0 mi North - - N/A   Clear
1:15 PM 46.4 °F 12.2 °F 25% 30.25 in 10.0 mi North - - N/A   Clear
1:35 PM 48.2 °F 14.0 °F 25% 30.24 in 10.0 mi North - - N/A   Clear
1:55 PM 48.2 °F 14.0 °F 25% 30.22 in 10.0 mi North - - N/A   Clear
2:15 PM 48.2 °F 14.0 °F 25% 30.22 in 10.0 mi North - - N/A   Clear
2:35 PM 50.0 °F 14.0 °F 24% 30.22 in 10.0 mi North - - N/A   Clear
2:55 PM 50.0 °F 15.8 °F 26% 30.21 in 10.0 mi North - - N/A   Clear
3:15 PM 50.0 °F 15.8 °F 26% 30.19 in 10.0 mi North - - N/A   Clear
3:35 PM 51.8 °F 15.8 °F 24% 30.19 in 10.0 mi North - - N/A   Clear
3:55 PM 51.8 °F 15.8 °F 24% 30.19 in 10.0 mi North - - N/A   Clear
4:15 PM 51.8 °F 14.0 °F 22% 30.18 in 10.0 mi North - - N/A   Clear
4:35 PM 53.6 °F 15.8 °F 22% 30.17 in 10.0 mi North - - N/A   Clear
4:55 PM 53.6 °F 15.8 °F 22% 30.16 in 10.0 mi North - - N/A   Clear
5:15 PM 53.6 °F 14.0 °F 21% 30.15 in 10.0 mi North - - N/A   Clear
5:35 PM 51.8 °F 14.0 °F 22% 30.15 in 10.0 mi North - - N/A   Clear
5:55 PM 50.0 °F 15.8 °F 26% 30.15 in 10.0 mi North - - N/A   Clear
6:15 PM 50.0 °F 15.8 °F 26% 30.15 in 10.0 mi North - - N/A   Clear
6:35 PM 48.2 °F 15.8 °F 27% 30.16 in 10.0 mi North - - N/A   Clear
6:55 PM 48.2 °F 15.8 °F 27% 30.17 in 10.0 mi North - - N/A   Clear
7:15 PM 48.2 °F 15.8 °F 27% 30.16 in 10.0 mi North - - N/A   Clear
7:35 PM 46.4 °F 17.6 °F 32% 30.16 in 10.0 mi North - - N/A   Clear
7:55 PM 41.0 °F 23.0 °F 49% 30.16 in 10.0 mi North - - N/A   Clear
8:15 PM 41.0 °F 23.0 °F 49% 30.16 in 10.0 mi North - - N/A   Clear
8:35 PM 39.2 °F 23.0 °F 52% 30.16 in 10.0 mi North - - N/A   Clear
8:55 PM 41.0 °F 21.2 °F 45% 30.17 in 10.0 mi North - - N/A   Clear
9:15 PM 39.2 °F 23.0 °F 52% 30.17 in 10.0 mi North - - N/A   Clear
9:35 PM 39.2 °F 23.0 °F 52% 30.17 in 10.0 mi North - - N/A   Clear
9:55 PM 41.0 °F 23.0 °F 49% 30.17 in 10.0 mi North - - N/A   Clear
10:15 PM 41.0 °F 23.0 °F 49% 30.17 in 10.0 mi North - - N/A   Clear
10:35 PM 39.2 °F 23.0 °F 52% 30.18 in 10.0 mi North - - N/A   Clear
10:55 PM 37.4 °F 26.6 °F 65% 30.18 in 10.0 mi North - - N/A   Clear
11:15 PM 33.8 °F 28.4 °F 81% 30.18 in 10.0 mi North - - N/A   Clear
11:35 PM 32.0 °F 26.6 °F 80% 30.18 in 10.0 mi North - - N/A   Clear
11:55 PM 32.0 °F 26.6 °F 80% 30.18 in 10.0 mi North - - N/A   Clear